createdAt,value
2023-01-27T00:00:52.605Z,73.30
2023-01-27T00:01:52.606Z,80.10
2023-01-27T00:02:52.613Z,84.10
2023-01-27T00:03:52.628Z,75.60
2023-01-27T00:04:52.575Z,84.80
2023-01-27T00:05:52.553Z,84.00
2023-01-27T00:06:52.539Z,90.40
2023-01-27T00:07:52.508Z,81.70
2023-01-27T00:08:52.492Z,81.00
2023-01-27T00:09:52.476Z,81.20
2023-01-27T00:10:52.468Z,79.30
2023-01-27T00:11:52.449Z,80.40
2023-01-27T00:12:52.436Z,80.40
2023-01-27T00:13:52.431Z,79.70
2023-01-27T00:14:52.419Z,81.90
2023-01-27T00:15:52.431Z,81.00
2023-01-27T00:16:52.382Z,79.20
2023-01-27T00:17:52.364Z,69.70
2023-01-27T00:18:52.370Z,70.20
2023-01-27T00:19:52.331Z,68.60
2023-01-27T00:20:52.325Z,73.80
2023-01-27T00:21:52.308Z,80.80
2023-01-27T00:22:52.292Z,75.70
2023-01-27T00:23:52.320Z,78.30
2023-01-27T00:24:52.262Z,79.30
2023-01-27T00:25:52.249Z,79.10
2023-01-27T00:26:52.243Z,85.90
2023-01-27T00:27:52.227Z,91.60
2023-01-27T00:28:52.341Z,88.10
2023-01-27T00:29:52.308Z,80.40
2023-01-27T00:30:52.236Z,80.90
2023-01-27T00:31:52.186Z,77.30
2023-01-27T00:32:53.145Z,75.30
2023-01-27T00:33:52.137Z,77.90
2023-01-27T00:34:52.123Z,82.30
2023-01-27T00:35:52.107Z,75.40
2023-01-27T00:36:52.104Z,78.10
2023-01-27T00:37:52.078Z,74.30
2023-01-27T00:38:52.069Z,72.70
2023-01-27T00:39:52.062Z,72.10
2023-01-27T00:40:52.039Z,72.70
2023-01-27T00:41:52.022Z,68.10
2023-01-27T00:42:52.009Z,69.40
2023-01-27T00:43:52.001Z,92.20
2023-01-27T00:44:51.984Z,72.80
2023-01-27T00:45:51.967Z,74.90
2023-01-27T00:46:52.031Z,73.70
2023-01-27T00:47:51.935Z,71.70
2023-01-27T00:48:51.930Z,65.00
2023-01-27T00:49:51.911Z,74.70
2023-01-27T00:50:51.892Z,71.00
2023-01-27T00:51:51.881Z,73.60
2023-01-27T00:52:51.870Z,70.40
2023-01-27T00:53:51.849Z,68.90
2023-01-27T00:54:51.835Z,75.40
2023-01-27T00:55:51.822Z,72.50
2023-01-27T00:56:51.814Z,79.30
2023-01-27T00:57:51.801Z,72.70
2023-01-27T00:58:51.780Z,71.90
2023-01-27T00:59:51.799Z,70.80
2023-01-27T01:00:51.753Z,70.70
2023-01-27T01:01:51.780Z,72.30
2023-01-27T01:02:51.749Z,74.00
2023-01-27T01:03:51.711Z,72.40
2023-01-27T01:04:51.817Z,77.50
2023-01-27T01:05:51.679Z,80.90
2023-01-27T01:06:51.662Z,75.90
2023-01-27T01:07:51.650Z,75.90
2023-01-27T01:08:51.634Z,74.00
2023-01-27T01:09:51.632Z,81.80
2023-01-27T01:10:51.609Z,82.00
2023-01-27T01:11:51.593Z,78.00
2023-01-27T01:12:51.589Z,82.50
2023-01-27T01:13:51.566Z,75.80
2023-01-27T01:14:51.551Z,76.10
2023-01-27T01:15:51.558Z,76.60
2023-01-27T01:16:51.521Z,80.50
2023-01-27T01:17:51.516Z,83.50
2023-01-27T01:18:51.493Z,86.80
2023-01-27T01:19:51.482Z,82.50
2023-01-27T01:20:51.469Z,84.80
2023-01-27T01:21:51.458Z,81.10
2023-01-27T01:22:51.441Z,90.20
2023-01-27T01:23:51.497Z,97.20
2023-01-27T01:24:51.408Z,107.20
2023-01-27T01:25:51.392Z,105.10
2023-01-27T01:26:51.378Z,122.00
2023-01-27T01:27:51.367Z,106.80
2023-01-27T01:28:51.351Z,108.30
2023-01-27T01:29:51.335Z,114.50
2023-01-27T01:30:51.379Z,104.90
2023-01-27T01:31:51.315Z,98.60
2023-01-27T01:32:51.295Z,115.00
2023-01-27T01:33:51.285Z,111.10
2023-01-27T01:34:51.267Z,110.70
2023-01-27T01:35:51.252Z,96.00
2023-01-27T01:36:51.277Z,127.00
2023-01-27T01:37:51.226Z,128.10
2023-01-27T01:38:51.215Z,143.40
2023-01-27T01:39:51.193Z,126.60
2023-01-27T01:40:51.180Z,127.90
2023-01-27T01:41:51.174Z,179.30
2023-01-27T01:42:51.161Z,183.50
2023-01-27T01:43:51.137Z,126.70
2023-01-27T01:44:51.122Z,144.40
2023-01-27T01:45:51.142Z,122.70
2023-01-27T01:46:51.177Z,132.20
2023-01-27T01:47:51.081Z,117.40
2023-01-27T01:48:51.073Z,150.00
2023-01-27T01:49:51.051Z,134.10
2023-01-27T01:50:51.042Z,161.50
2023-01-27T01:51:51.026Z,153.70
2023-01-27T01:52:51.013Z,118.30
2023-01-27T01:53:50.994Z,157.20
2023-01-27T01:54:50.981Z,150.00
2023-01-27T01:55:50.972Z,133.40
2023-01-27T01:56:50.951Z,127.30
2023-01-27T01:57:50.944Z,130.10
2023-01-27T01:58:50.930Z,139.40
2023-01-27T01:59:50.906Z,123.90
2023-01-27T02:00:51.011Z,154.20
2023-01-27T02:01:50.895Z,134.90
2023-01-27T02:02:50.883Z,148.90
2023-01-27T02:03:50.863Z,121.10
2023-01-27T02:04:50.839Z,182.90
2023-01-27T02:05:50.833Z,137.70
2023-01-27T02:06:50.823Z,130.00
2023-01-27T02:07:50.796Z,136.20
2023-01-27T02:08:50.792Z,142.20
2023-01-27T02:09:50.767Z,167.90
2023-01-27T02:10:50.754Z,187.60
2023-01-27T02:11:50.739Z,156.20
2023-01-27T02:12:50.733Z,131.80
2023-01-27T02:13:50.706Z,125.70
2023-01-27T02:14:50.701Z,120.80
2023-01-27T02:15:50.683Z,130.00
2023-01-27T02:16:50.700Z,124.50
2023-01-27T02:17:50.657Z,124.00
2023-01-27T02:18:50.663Z,123.10
2023-01-27T02:19:50.629Z,126.50
2023-01-27T02:20:50.635Z,125.20
2023-01-27T02:21:50.595Z,114.60
2023-01-27T02:22:50.581Z,127.00
2023-01-27T02:23:50.684Z,121.40
2023-01-27T02:24:50.568Z,125.60
2023-01-27T02:25:50.540Z,132.40
2023-01-27T02:26:50.527Z,126.30
2023-01-27T02:27:50.523Z,109.80
2023-01-27T02:28:50.497Z,117.30
2023-01-27T02:29:50.480Z,124.20
2023-01-27T02:30:50.548Z,99.80
2023-01-27T02:31:50.533Z,111.50
2023-01-27T02:32:50.440Z,141.20
2023-01-27T02:33:50.439Z,116.40
2023-01-27T02:34:50.413Z,108.50
2023-01-27T02:35:50.397Z,115.60
2023-01-27T02:36:50.391Z,108.60
2023-01-27T02:37:50.369Z,108.10
2023-01-27T02:38:50.353Z,105.20
2023-01-27T02:39:50.343Z,125.10
2023-01-27T02:40:50.329Z,95.40
2023-01-27T02:41:50.309Z,88.00
2023-01-27T02:42:50.302Z,102.80
2023-01-27T02:43:50.286Z,90.90
2023-01-27T02:44:50.271Z,94.40
2023-01-27T02:45:50.290Z,89.70
2023-01-27T02:46:50.241Z,82.90
2023-01-27T02:47:50.226Z,95.30
2023-01-27T02:48:50.213Z,95.00
2023-01-27T02:49:50.209Z,96.60
2023-01-27T02:50:50.187Z,115.00
2023-01-27T02:51:50.168Z,99.30
2023-01-27T02:52:50.156Z,91.80
2023-01-27T02:53:50.145Z,112.20
2023-01-27T02:54:50.133Z,96.10
2023-01-27T02:55:50.114Z,104.80
2023-01-27T02:56:50.103Z,86.80
2023-01-27T02:57:50.094Z,80.90
2023-01-27T02:58:50.076Z,77.80
2023-01-27T02:59:50.058Z,76.00
2023-01-27T03:00:50.048Z,67.70
2023-01-27T03:01:50.067Z,69.40
2023-01-27T03:02:50.017Z,76.30
2023-01-27T03:03:50.004Z,78.60
2023-01-27T03:04:50.040Z,73.80
2023-01-27T03:05:49.978Z,85.60
2023-01-27T03:06:49.971Z,83.40
2023-01-27T03:07:49.951Z,89.60
2023-01-27T03:08:49.948Z,88.10
2023-01-27T03:09:49.926Z,82.00
2023-01-27T03:10:49.907Z,81.90
2023-01-27T03:11:49.890Z,81.30
2023-01-27T03:12:49.872Z,88.90
2023-01-27T03:13:49.861Z,79.60
2023-01-27T03:14:49.854Z,80.60
2023-01-27T03:15:49.885Z,87.30
2023-01-27T03:16:49.818Z,81.70
2023-01-27T03:17:49.972Z,74.60
2023-01-27T03:18:49.789Z,79.30
2023-01-27T03:19:49.775Z,75.20
2023-01-27T03:20:49.776Z,71.90
2023-01-27T03:21:49.752Z,70.10
2023-01-27T03:22:49.735Z,73.40
2023-01-27T03:23:49.794Z,77.00
2023-01-27T03:24:49.704Z,76.60
2023-01-27T03:25:49.699Z,73.10
2023-01-27T03:26:49.685Z,70.80
2023-01-27T03:27:49.664Z,75.00
2023-01-27T03:28:49.650Z,74.70
2023-01-27T03:29:49.639Z,77.30
2023-01-27T03:30:49.722Z,79.20
2023-01-27T03:31:49.723Z,84.60
2023-01-27T03:32:49.592Z,74.30
2023-01-27T03:33:49.580Z,89.50
2023-01-27T03:34:49.574Z,74.00
2023-01-27T03:35:49.560Z,74.30
2023-01-27T03:36:49.544Z,71.20
2023-01-27T03:37:49.526Z,74.20
2023-01-27T03:38:49.511Z,65.90
2023-01-27T03:39:49.499Z,64.00
2023-01-27T03:40:49.481Z,67.70
2023-01-27T03:41:49.475Z,64.10
2023-01-27T03:42:49.468Z,69.80
2023-01-27T03:43:49.445Z,64.00
2023-01-27T03:44:49.436Z,65.70
2023-01-27T03:45:49.435Z,73.70
2023-01-27T03:46:49.409Z,73.50
2023-01-27T03:47:49.412Z,70.40
2023-01-27T03:48:49.368Z,71.50
2023-01-27T03:49:49.353Z,65.10
2023-01-27T03:50:49.343Z,68.00
2023-01-27T03:51:49.327Z,74.40
2023-01-27T03:52:49.317Z,67.50
2023-01-27T03:53:49.300Z,67.90
2023-01-27T03:54:49.285Z,71.30
2023-01-27T03:55:49.272Z,77.90
2023-01-27T03:56:49.255Z,77.40
2023-01-27T03:57:49.243Z,75.30
2023-01-27T03:58:49.231Z,70.20
2023-01-27T03:59:49.215Z,82.40
2023-01-27T04:00:49.201Z,68.30
2023-01-27T04:01:49.232Z,70.70
2023-01-27T04:02:49.233Z,70.80
2023-01-27T04:03:49.156Z,68.10
2023-01-27T04:04:49.148Z,72.50
2023-01-27T04:05:49.130Z,68.60
2023-01-27T04:06:49.120Z,72.40
2023-01-27T04:07:49.108Z,69.90
2023-01-27T04:08:49.086Z,69.70
2023-01-27T04:09:49.081Z,71.30
2023-01-27T04:10:49.067Z,67.40
2023-01-27T04:11:49.050Z,70.80
2023-01-27T04:12:49.040Z,72.00
2023-01-27T04:13:49.017Z,69.40
2023-01-27T04:14:49.002Z,70.60
2023-01-27T04:15:49.021Z,72.70
2023-01-27T04:16:48.976Z,70.30
2023-01-27T04:17:48.963Z,63.90
2023-01-27T04:18:49.825Z,65.80
2023-01-27T04:19:48.932Z,66.70
2023-01-27T04:20:48.919Z,62.70
2023-01-27T04:21:48.911Z,64.60
2023-01-27T04:22:48.893Z,63.80
2023-01-27T04:23:48.987Z,62.10
2023-01-27T04:24:48.865Z,61.10
2023-01-27T04:25:48.844Z,60.40
2023-01-27T04:26:48.833Z,60.40
2023-01-27T04:27:48.828Z,66.10
2023-01-27T04:28:48.806Z,63.20
2023-01-27T04:29:48.794Z,62.50
2023-01-27T04:30:48.800Z,63.20
2023-01-27T04:31:48.792Z,54.70
2023-01-27T04:32:48.748Z,57.80
2023-01-27T04:33:48.730Z,57.00
2023-01-27T04:34:48.731Z,57.00
2023-01-27T04:35:48.705Z,56.30
2023-01-27T04:36:48.696Z,51.40
2023-01-27T04:37:48.677Z,51.00
2023-01-27T04:38:48.676Z,52.40
2023-01-27T04:39:48.648Z,51.20
2023-01-27T04:40:48.635Z,53.10
2023-01-27T04:41:48.622Z,51.80
2023-01-27T04:42:48.607Z,55.40
2023-01-27T04:43:48.594Z,54.90
2023-01-27T04:44:48.583Z,52.20
2023-01-27T04:45:48.611Z,51.30
2023-01-27T04:46:48.593Z,52.00
2023-01-27T04:47:48.540Z,54.30
2023-01-27T04:48:48.553Z,54.70
2023-01-27T04:49:48.502Z,52.70
2023-01-27T04:50:48.511Z,49.60
2023-01-27T04:51:48.494Z,52.10
2023-01-27T04:52:48.470Z,57.50
2023-01-27T04:53:48.452Z,57.60
2023-01-27T04:54:48.447Z,60.70
2023-01-27T04:55:48.423Z,56.70
2023-01-27T04:56:48.409Z,58.80
2023-01-27T04:57:48.394Z,62.30
2023-01-27T04:58:48.397Z,60.70
2023-01-27T04:59:48.369Z,60.70
2023-01-27T05:00:48.353Z,57.50
2023-01-27T05:01:48.373Z,60.90
2023-01-27T05:02:48.373Z,60.20
2023-01-27T05:03:48.313Z,62.60
2023-01-27T05:04:48.298Z,64.40
2023-01-27T05:05:48.280Z,62.40
2023-01-27T05:06:48.290Z,63.00
2023-01-27T05:07:48.256Z,66.50
2023-01-27T05:08:48.245Z,65.70
2023-01-27T05:09:48.226Z,67.50
2023-01-27T05:10:48.213Z,67.30
2023-01-27T05:11:48.199Z,62.60
2023-01-27T05:12:48.186Z,63.20
2023-01-27T05:13:48.168Z,65.40
2023-01-27T05:14:48.172Z,65.10
2023-01-27T05:15:48.194Z,65.10
2023-01-27T05:16:48.158Z,64.60
2023-01-27T05:17:48.113Z,69.70
2023-01-27T05:18:48.100Z,65.70
2023-01-27T05:19:48.085Z,72.20
2023-01-27T05:20:48.484Z,76.20
2023-01-27T05:21:48.058Z,67.10
2023-01-27T05:22:48.047Z,62.30
2023-01-27T05:23:48.032Z,64.90
2023-01-27T05:24:48.014Z,67.00
2023-01-27T05:25:48.001Z,65.10
2023-01-27T05:26:47.994Z,60.50
2023-01-27T05:27:47.976Z,62.30
2023-01-27T05:28:47.960Z,61.80
2023-01-27T05:29:47.946Z,63.50
2023-01-27T05:30:48.141Z,59.80
2023-01-27T05:31:47.940Z,61.00
2023-01-27T05:32:47.929Z,55.30
2023-01-27T05:33:47.915Z,60.70
2023-01-27T05:34:47.878Z,61.20
2023-01-27T05:35:47.868Z,69.00
2023-01-27T05:36:47.857Z,69.10
2023-01-27T05:37:47.835Z,66.70
2023-01-27T05:38:47.823Z,71.80
2023-01-27T05:39:47.817Z,67.50
2023-01-27T05:40:47.793Z,66.20
2023-01-27T05:41:47.786Z,78.30
2023-01-27T05:42:47.783Z,73.70
2023-01-27T05:43:47.759Z,71.70
2023-01-27T05:44:49.622Z,73.70
2023-01-27T05:45:47.726Z,75.30
2023-01-27T05:46:47.761Z,77.00
2023-01-27T05:47:47.698Z,72.30
2023-01-27T05:48:47.684Z,77.90
2023-01-27T05:49:47.669Z,76.90
2023-01-27T05:50:47.654Z,72.30
2023-01-27T05:51:47.640Z,75.90
2023-01-27T05:52:47.629Z,75.00
2023-01-27T05:53:47.611Z,77.50
2023-01-27T05:54:47.602Z,80.40
2023-01-27T05:55:47.581Z,76.20
2023-01-27T05:56:47.575Z,76.50
2023-01-27T05:57:47.555Z,74.40
2023-01-27T05:58:47.544Z,69.20
2023-01-27T05:59:47.528Z,79.60
2023-01-27T06:00:47.512Z,69.70
2023-01-27T06:01:47.516Z,70.70
2023-01-27T06:02:47.507Z,75.20
2023-01-27T06:03:47.502Z,73.10
2023-01-27T06:04:47.465Z,74.80
2023-01-27T06:05:47.444Z,73.10
2023-01-27T06:06:47.433Z,71.20
2023-01-27T06:07:47.432Z,64.20
2023-01-27T06:08:47.424Z,71.30
2023-01-27T06:09:47.388Z,75.80
2023-01-27T06:10:47.377Z,70.80
2023-01-27T06:11:47.375Z,65.70
2023-01-27T06:12:47.348Z,68.60
2023-01-27T06:13:47.331Z,62.90
2023-01-27T06:14:47.330Z,64.20
2023-01-27T06:15:47.306Z,64.30
2023-01-27T06:16:47.398Z,74.00
2023-01-27T06:17:47.277Z,65.90
2023-01-27T06:18:47.266Z,61.80
2023-01-27T06:19:47.252Z,61.60
2023-01-27T06:20:47.233Z,66.90
2023-01-27T06:21:47.221Z,66.30
2023-01-27T06:22:47.213Z,60.30
2023-01-27T06:23:47.195Z,62.70
2023-01-27T06:24:47.178Z,63.80
2023-01-27T06:25:47.197Z,71.40
2023-01-27T06:26:47.155Z,77.20
2023-01-27T06:27:47.141Z,66.50
2023-01-27T06:28:47.143Z,82.80
2023-01-27T06:29:47.113Z,77.50
2023-01-27T06:30:47.129Z,66.00
2023-01-27T06:31:47.155Z,78.10
2023-01-27T06:32:47.086Z,78.60
2023-01-27T06:33:47.057Z,92.30
2023-01-27T06:34:47.046Z,85.90
2023-01-27T06:35:47.028Z,75.30
2023-01-27T06:36:47.014Z,73.40
2023-01-27T06:37:46.999Z,80.00
2023-01-27T06:38:46.985Z,77.10
2023-01-27T06:39:46.978Z,76.40
2023-01-27T06:40:46.957Z,74.20
2023-01-27T06:41:46.944Z,75.80
2023-01-27T06:42:46.931Z,70.00
2023-01-27T06:43:46.915Z,64.10
2023-01-27T06:44:46.923Z,70.10
2023-01-27T06:45:46.890Z,71.00
2023-01-27T06:46:46.894Z,70.00
2023-01-27T06:47:46.859Z,68.20
2023-01-27T06:48:46.869Z,63.60
2023-01-27T06:49:46.828Z,69.20
2023-01-27T06:50:46.822Z,67.60
2023-01-27T06:51:46.803Z,74.20
2023-01-27T06:52:46.790Z,63.10
2023-01-27T06:53:46.777Z,70.80
2023-01-27T06:54:46.765Z,73.60
2023-01-27T06:55:46.745Z,76.40
2023-01-27T06:56:46.743Z,66.40
2023-01-27T06:57:46.724Z,64.50
2023-01-27T06:58:46.706Z,81.30
2023-01-27T06:59:46.708Z,65.90
2023-01-27T07:00:46.715Z,87.60
2023-01-27T07:01:46.715Z,93.10
2023-01-27T07:02:46.682Z,84.30
2023-01-27T07:03:46.635Z,74.20
2023-01-27T07:04:46.628Z,81.60
2023-01-27T07:05:46.635Z,75.70
2023-01-27T07:06:46.597Z,78.60
2023-01-27T07:07:46.584Z,87.60
2023-01-27T07:08:46.580Z,70.70
2023-01-27T07:09:52.340Z,72.50
2023-01-27T07:10:46.547Z,68.70
2023-01-27T07:11:46.550Z,73.20
2023-01-27T07:12:46.544Z,88.50
2023-01-27T07:13:46.505Z,70.70
2023-01-27T07:14:46.484Z,66.70
2023-01-27T07:15:46.472Z,103.60
2023-01-27T07:16:46.458Z,66.20
2023-01-27T07:17:46.444Z,68.50
2023-01-27T07:18:46.429Z,67.70
2023-01-27T07:19:46.415Z,68.20
2023-01-27T07:20:46.403Z,68.60
2023-01-27T07:21:46.388Z,70.70
2023-01-27T07:22:46.375Z,72.80
2023-01-27T07:23:46.363Z,64.80
2023-01-27T07:24:46.346Z,76.00
2023-01-27T07:25:46.328Z,63.40
2023-01-27T07:26:46.319Z,59.70
2023-01-27T07:27:46.321Z,63.10
2023-01-27T07:28:46.293Z,76.60
2023-01-27T07:29:46.278Z,82.20
2023-01-27T07:30:46.343Z,69.30
2023-01-27T07:31:46.286Z,80.60
2023-01-27T07:32:46.232Z,61.10
2023-01-27T07:33:46.233Z,71.70
2023-01-27T07:34:46.217Z,89.40
2023-01-27T07:35:46.193Z,76.80
2023-01-27T07:36:46.180Z,81.30
2023-01-27T07:37:46.166Z,66.50
2023-01-27T07:38:46.262Z,73.70
2023-01-27T07:39:46.230Z,69.80
2023-01-27T07:40:46.164Z,73.00
2023-01-27T07:41:46.115Z,82.60
2023-01-27T07:42:46.100Z,68.20
2023-01-27T07:43:46.093Z,81.60
2023-01-27T07:44:46.066Z,81.30
2023-01-27T07:45:46.067Z,81.20
2023-01-27T07:46:46.050Z,75.60
2023-01-27T07:47:46.024Z,80.20
2023-01-27T07:48:46.020Z,87.10
2023-01-27T07:49:46.024Z,80.40
2023-01-27T07:50:46.002Z,89.50
2023-01-27T07:51:45.988Z,79.80
2023-01-27T07:52:45.958Z,83.80
2023-01-27T07:53:46.159Z,82.10
2023-01-27T07:54:45.937Z,80.20
2023-01-27T07:55:45.921Z,81.60
2023-01-27T07:56:45.902Z,84.10
2023-01-27T07:57:45.911Z,78.60
2023-01-27T07:58:45.886Z,78.30
2023-01-27T07:59:45.859Z,90.80
2023-01-27T08:00:45.875Z,81.90
2023-01-27T08:01:48.113Z,80.20
2023-01-27T08:02:45.825Z,74.10
2023-01-27T08:03:45.808Z,75.00
2023-01-27T08:04:52.918Z,71.80
2023-01-27T08:05:45.776Z,64.10
2023-01-27T08:06:45.767Z,74.10
2023-01-27T08:07:45.753Z,71.70
2023-01-27T08:08:45.741Z,79.10
2023-01-27T08:09:45.791Z,80.70
2023-01-27T08:10:45.712Z,70.30
2023-01-27T08:11:45.717Z,83.00
2023-01-27T08:12:45.681Z,77.60
2023-01-27T08:13:45.682Z,62.50
2023-01-27T08:14:45.656Z,73.20
2023-01-27T08:15:45.647Z,77.40
2023-01-27T08:16:45.672Z,74.20
2023-01-27T08:17:45.619Z,69.90
2023-01-27T08:18:45.601Z,75.90
2023-01-27T08:19:45.585Z,64.90
2023-01-27T08:20:46.195Z,74.00
2023-01-27T08:21:45.606Z,68.20
2023-01-27T08:22:45.547Z,67.00
2023-01-27T08:23:45.533Z,65.70
2023-01-27T08:24:45.540Z,74.70
2023-01-27T08:25:45.515Z,72.20
2023-01-27T08:26:45.498Z,71.00
2023-01-27T08:27:45.477Z,76.10
2023-01-27T08:28:45.462Z,55.60
2023-01-27T08:29:45.454Z,62.80
2023-01-27T08:30:45.435Z,72.50
2023-01-27T08:31:45.534Z,73.20
2023-01-27T08:32:45.413Z,68.50
2023-01-27T08:33:45.423Z,65.60
2023-01-27T08:34:45.391Z,62.90
2023-01-27T08:35:45.382Z,61.30
2023-01-27T08:36:45.359Z,59.40
2023-01-27T08:37:47.337Z,67.80
2023-01-27T08:38:45.339Z,53.90
2023-01-27T08:39:45.312Z,60.00
2023-01-27T08:40:45.311Z,65.70
2023-01-27T08:41:45.290Z,60.00
2023-01-27T08:42:45.277Z,58.60
2023-01-27T08:43:45.259Z,64.80
2023-01-27T08:44:45.254Z,56.30
2023-01-27T08:45:45.249Z,55.30
2023-01-27T08:46:45.227Z,60.30
2023-01-27T08:47:45.215Z,57.60
2023-01-27T08:48:45.195Z,56.50
2023-01-27T08:49:45.187Z,57.80
2023-01-27T08:50:45.170Z,60.60
2023-01-27T08:51:45.178Z,65.00
2023-01-27T08:52:45.149Z,64.60
2023-01-27T08:53:45.130Z,55.60
2023-01-27T08:54:45.127Z,58.40
2023-01-27T08:55:45.102Z,55.10
2023-01-27T08:56:45.101Z,50.10
2023-01-27T08:57:45.077Z,63.50
2023-01-27T08:58:45.065Z,48.20
2023-01-27T08:59:45.051Z,47.00
2023-01-27T09:00:45.053Z,56.40
2023-01-27T09:01:45.155Z,48.00
2023-01-27T09:02:46.554Z,51.50
2023-01-27T09:03:45.002Z,51.30
2023-01-27T09:04:45.029Z,43.30
2023-01-27T09:05:44.971Z,44.00
2023-01-27T09:06:44.972Z,45.80
2023-01-27T09:07:44.946Z,49.30
2023-01-27T09:08:44.932Z,38.50
2023-01-27T09:09:44.921Z,40.80
2023-01-27T09:10:44.907Z,40.40
2023-01-27T09:11:44.900Z,52.40
2023-01-27T09:12:44.879Z,46.60
2023-01-27T09:13:44.864Z,45.70
2023-01-27T09:14:44.847Z,40.50
2023-01-27T09:15:44.837Z,44.20
2023-01-27T09:16:44.824Z,40.50
2023-01-27T09:17:44.835Z,37.30
2023-01-27T09:18:44.797Z,31.70
2023-01-27T09:19:44.781Z,35.00
2023-01-27T09:20:44.774Z,31.10
2023-01-27T09:21:44.761Z,30.80
2023-01-27T09:22:44.746Z,31.00
2023-01-27T09:23:44.735Z,30.40
2023-01-27T09:24:44.712Z,33.00
2023-01-27T09:25:44.708Z,26.50
2023-01-27T09:26:44.692Z,24.50
2023-01-27T09:27:44.707Z,34.00
2023-01-27T09:28:44.663Z,25.50
2023-01-27T09:29:44.657Z,27.60
2023-01-27T09:30:46.113Z,28.30
2023-01-27T09:31:44.742Z,24.40
2023-01-27T09:32:44.615Z,24.50
2023-01-27T09:33:44.596Z,23.80
2023-01-27T09:34:44.587Z,20.20
2023-01-27T09:35:44.575Z,23.60
2023-01-27T09:36:44.565Z,25.70
2023-01-27T09:37:44.550Z,19.70
2023-01-27T09:38:44.531Z,23.30
2023-01-27T09:39:44.517Z,24.60
2023-01-27T09:40:44.503Z,23.30
2023-01-27T09:41:44.491Z,22.60
2023-01-27T09:42:44.474Z,25.30
2023-01-27T09:43:44.464Z,22.60
2023-01-27T09:44:44.450Z,21.70
2023-01-27T09:45:44.437Z,19.20
2023-01-27T09:46:44.426Z,21.30
2023-01-27T09:47:44.406Z,22.80
2023-01-27T09:48:44.413Z,23.10
2023-01-27T09:49:44.384Z,22.50
2023-01-27T09:50:44.375Z,21.30
2023-01-27T09:51:44.357Z,23.10
2023-01-27T09:52:47.872Z,22.90
2023-01-27T09:53:44.348Z,25.50
2023-01-27T09:54:44.318Z,25.20
2023-01-27T09:55:44.308Z,20.50
2023-01-27T09:56:44.291Z,21.90
2023-01-27T09:57:44.323Z,18.10
2023-01-27T09:58:44.275Z,22.10
2023-01-27T09:59:44.245Z,22.90
2023-01-27T10:00:44.239Z,21.80
2023-01-27T10:01:44.264Z,20.20
2023-01-27T10:02:44.221Z,20.40
2023-01-27T10:03:44.199Z,17.80
2023-01-27T10:04:44.252Z,16.60
2023-01-27T10:05:44.180Z,16.00
2023-01-27T10:06:44.165Z,21.20
2023-01-27T10:07:44.145Z,15.10
2023-01-27T10:08:44.134Z,18.20
2023-01-27T10:09:44.119Z,20.00
2023-01-27T10:10:44.103Z,16.10
2023-01-27T10:11:44.090Z,21.00
2023-01-27T10:12:44.085Z,20.10
2023-01-27T10:13:44.064Z,17.80
2023-01-27T10:14:44.051Z,19.20
2023-01-27T10:15:44.040Z,18.20
2023-01-27T10:16:44.024Z,20.50
2023-01-27T10:17:44.013Z,23.60
2023-01-27T10:18:44.008Z,18.70
2023-01-27T10:19:43.986Z,20.40
2023-01-27T10:20:43.971Z,19.10
2023-01-27T10:21:43.960Z,28.60
2023-01-27T10:22:43.944Z,23.50
2023-01-27T10:23:43.925Z,19.70
2023-01-27T10:24:43.915Z,20.80
2023-01-27T10:25:43.900Z,18.10
2023-01-27T10:26:43.892Z,19.90
2023-01-27T10:27:43.877Z,15.10
2023-01-27T10:28:43.868Z,18.20
2023-01-27T10:29:43.851Z,18.50
2023-01-27T10:30:43.859Z,15.50
2023-01-27T10:31:43.908Z,15.20
2023-01-27T10:32:43.811Z,18.80
2023-01-27T10:33:43.804Z,19.00
2023-01-27T10:34:43.787Z,17.10
2023-01-27T10:35:43.775Z,18.10
2023-01-27T10:36:43.759Z,14.10
2023-01-27T10:37:43.743Z,12.10
2023-01-27T10:38:43.733Z,11.10
2023-01-27T10:39:43.718Z,13.20
2023-01-27T10:40:43.706Z,18.30
2023-01-27T10:41:43.698Z,15.00
2023-01-27T10:42:43.681Z,13.00
2023-01-27T10:43:43.667Z,15.10
2023-01-27T10:44:43.657Z,17.50
2023-01-27T10:45:43.689Z,13.80
2023-01-27T10:46:43.657Z,13.20
2023-01-27T10:47:43.613Z,11.10
2023-01-27T10:48:43.603Z,14.10
2023-01-27T10:49:43.591Z,14.40
2023-01-27T10:50:43.611Z,15.80
2023-01-27T10:51:43.572Z,16.90
2023-01-27T10:52:43.554Z,13.40
2023-01-27T10:53:43.543Z,13.20
2023-01-27T10:54:43.519Z,15.30
2023-01-27T10:55:43.506Z,16.40
2023-01-27T10:56:43.502Z,16.70
2023-01-27T10:57:43.513Z,12.90
2023-01-27T10:58:43.475Z,15.90
2023-01-27T10:59:45.230Z,14.10
2023-01-27T11:01:18.873Z,14.10
2023-01-27T11:01:43.469Z,13.70
2023-01-27T11:02:43.419Z,13.80
2023-01-27T11:03:43.416Z,17.30
2023-01-27T11:04:43.388Z,14.90
2023-01-27T11:05:43.391Z,17.50
2023-01-27T11:06:43.363Z,16.00
2023-01-27T11:07:43.350Z,13.80
2023-01-27T11:08:43.334Z,15.80
2023-01-27T11:09:43.321Z,13.80
2023-01-27T11:10:43.312Z,15.40
2023-01-27T11:11:43.313Z,18.90
2023-01-27T11:12:43.284Z,17.40
2023-01-27T11:13:43.287Z,17.10
2023-01-27T11:14:43.259Z,15.80
2023-01-27T11:15:43.237Z,18.00
2023-01-27T11:16:43.287Z,18.40
2023-01-27T11:17:43.217Z,16.10
2023-01-27T11:18:43.205Z,17.80
2023-01-27T11:19:43.190Z,21.50
2023-01-27T11:20:43.177Z,23.60
2023-01-27T11:21:43.165Z,23.40
2023-01-27T11:22:43.155Z,22.10
2023-01-27T11:23:43.145Z,23.00
2023-01-27T11:24:43.130Z,25.50
2023-01-27T11:25:43.114Z,25.40
2023-01-27T11:26:43.098Z,27.60
2023-01-27T11:27:43.084Z,26.40
2023-01-27T11:28:43.076Z,29.60
2023-01-27T11:29:43.086Z,26.20
2023-01-27T11:30:43.048Z,33.20
2023-01-27T11:31:43.094Z,26.40
2023-01-27T11:32:43.025Z,22.70
2023-01-27T11:33:43.006Z,27.20
2023-01-27T11:34:42.990Z,29.90
2023-01-27T11:35:42.982Z,28.30
2023-01-27T11:36:42.968Z,29.00
2023-01-27T11:37:42.956Z,27.40
2023-01-27T11:38:42.946Z,28.90
2023-01-27T11:39:42.923Z,29.10
2023-01-27T11:40:42.920Z,23.20
2023-01-27T11:41:42.900Z,27.80
2023-01-27T11:42:42.891Z,37.10
2023-01-27T11:43:42.894Z,30.80
2023-01-27T11:44:42.864Z,37.00
2023-01-27T11:45:42.978Z,30.40
2023-01-27T11:46:42.839Z,30.90
2023-01-27T11:47:42.824Z,31.40
2023-01-27T11:48:42.816Z,28.30
2023-01-27T11:49:42.796Z,25.80
2023-01-27T11:50:49.942Z,26.00
2023-01-27T11:52:46.759Z,27.70
2023-01-27T11:53:46.730Z,30.50
2023-01-27T11:55:39.636Z,35.40
2023-01-27T11:56:39.620Z,37.10
2023-01-27T11:58:43.595Z,40.40
2023-01-27T11:59:43.558Z,35.10
2023-01-27T12:01:47.565Z,37.70
2023-01-27T12:02:47.499Z,34.20
2023-01-27T12:04:51.536Z,36.00
2023-01-27T12:05:51.456Z,41.00
2023-01-27T12:07:55.474Z,35.60
2023-01-27T12:08:55.414Z,30.80
2023-01-27T12:10:59.371Z,35.80
2023-01-27T12:11:59.361Z,32.90
2023-01-27T12:14:03.334Z,33.30
2023-01-27T12:15:03.296Z,28.30
2023-01-27T12:17:07.267Z,29.90
2023-01-27T12:18:07.241Z,29.20
2023-01-27T12:20:11.513Z,26.90
2023-01-27T12:21:11.205Z,21.00
2023-01-27T12:23:15.164Z,24.90
2023-01-27T12:24:15.193Z,19.30
2023-01-27T12:26:19.099Z,18.60
2023-01-27T12:27:19.080Z,17.90
2023-01-27T12:29:23.052Z,22.90
2023-01-27T12:30:23.040Z,20.90
2023-01-27T12:32:26.999Z,17.20
2023-01-27T12:33:26.974Z,17.50
2023-01-27T12:35:19.872Z,17.20
2023-01-27T12:36:19.860Z,14.60
2023-01-27T12:38:23.830Z,16.70
2023-01-27T12:39:23.791Z,16.60
2023-01-27T12:41:27.778Z,15.60
2023-01-27T12:42:27.747Z,17.30
2023-01-27T12:43:27.811Z,21.10
2023-01-27T12:44:27.718Z,17.70
2023-01-27T12:45:27.705Z,15.10
2023-01-27T12:46:27.745Z,16.70
2023-01-27T12:47:27.698Z,16.90
2023-01-27T12:48:27.665Z,21.30
2023-01-27T12:49:27.652Z,13.30
2023-01-27T12:50:27.726Z,13.70
2023-01-27T12:51:27.621Z,16.60
2023-01-27T12:52:27.611Z,18.80
2023-01-27T12:53:27.665Z,15.70
2023-01-27T12:54:27.643Z,15.80
2023-01-27T12:55:27.582Z,16.70
2023-01-27T12:56:27.567Z,16.40
2023-01-27T12:57:27.548Z,16.70
2023-01-27T12:58:27.539Z,17.30
2023-01-27T12:59:27.520Z,12.20
2023-01-27T13:00:27.505Z,14.80
2023-01-27T13:01:27.517Z,16.90
2023-01-27T13:02:27.479Z,15.90
2023-01-27T13:03:27.500Z,18.80
2023-01-27T13:04:27.456Z,19.20
2023-01-27T13:05:27.439Z,14.40
2023-01-27T13:06:27.433Z,16.10
2023-01-27T13:07:27.418Z,13.70
2023-01-27T13:08:27.409Z,14.50